sensor_id;sensor_type;location;lat;lon;timestamp;pressure;altitude;pressure_sealevel;temperature;humidity
82476;BME280;72099;43.176;76.872;2024-03-02T00:01:30;89745.59;;;-7.39;65.82
82476;BME280;72099;43.176;76.872;2024-03-02T00:04:31;89742.81;;;-7.37;67.24
82476;BME280;72099;43.176;76.872;2024-03-02T00:07:57;89746.63;;;-7.40;66.60
82476;BME280;72099;43.176;76.872;2024-03-02T00:10:59;89745.84;;;-7.40;67.25
82476;BME280;72099;43.176;76.872;2024-03-02T00:14:00;89755.09;;;-7.34;67.72
82476;BME280;72099;43.176;76.872;2024-03-02T00:17:01;89753.56;;;-7.35;66.24
82476;BME280;72099;43.176;76.872;2024-03-02T00:20:03;89760.94;;;-7.39;66.09
82476;BME280;72099;43.176;76.872;2024-03-02T00:23:05;89770.06;;;-7.43;66.35
82476;BME280;72099;43.176;76.872;2024-03-02T00:26:07;89775.72;;;-7.41;66.30
82476;BME280;72099;43.176;76.872;2024-03-02T00:29:16;89768.38;;;-7.37;67.57
82476;BME280;72099;43.176;76.872;2024-03-02T00:32:19;89774.53;;;-7.33;67.11
82476;BME280;72099;43.176;76.872;2024-03-02T00:35:22;89782.53;;;-7.47;67.66
82476;BME280;72099;43.176;76.872;2024-03-02T00:38:23;89785.72;;;-7.56;66.69
82476;BME280;72099;43.176;76.872;2024-03-02T00:41:26;89784.78;;;-7.50;67.39
82476;BME280;72099;43.176;76.872;2024-03-02T00:44:28;89792.28;;;-7.44;68.14
82476;BME280;72099;43.176;76.872;2024-03-02T00:51:05;89785.94;;;-7.41;67.04
82476;BME280;72099;43.176;76.872;2024-03-02T00:54:08;89781.94;;;-7.54;67.80
82476;BME280;72099;43.176;76.872;2024-03-02T01:00:36;89794.00;;;-7.49;66.46
82476;BME280;72099;43.176;76.872;2024-03-02T01:03:37;89800.25;;;-7.40;67.70
82476;BME280;72099;43.176;76.872;2024-03-02T01:06:38;89800.72;;;-7.43;67.65
82476;BME280;72099;43.176;76.872;2024-03-02T01:09:39;89812.63;;;-7.32;67.43
82476;BME280;72099;43.176;76.872;2024-03-02T01:12:41;89804.28;;;-7.27;68.08
82476;BME280;72099;43.176;76.872;2024-03-02T01:15:42;89820.72;;;-7.18;66.44
82476;BME280;72099;43.176;76.872;2024-03-02T01:18:43;89806.25;;;-7.13;66.87
82476;BME280;72099;43.176;76.872;2024-03-02T01:21:44;89820.66;;;-7.23;67.30
82476;BME280;72099;43.176;76.872;2024-03-02T01:24:45;89822.69;;;-7.25;66.43
82476;BME280;72099;43.176;76.872;2024-03-02T01:27:46;89816.28;;;-7.28;67.20
82476;BME280;72099;43.176;76.872;2024-03-02T01:30:47;89813.28;;;-7.41;67.65
82476;BME280;72099;43.176;76.872;2024-03-02T01:33:48;89820.03;;;-7.30;67.17
82476;BME280;72099;43.176;76.872;2024-03-02T01:36:49;89825.63;;;-7.33;66.56
82476;BME280;72099;43.176;76.872;2024-03-02T01:39:50;89820.59;;;-7.45;67.46
82476;BME280;72099;43.176;76.872;2024-03-02T01:42:51;89825.47;;;-7.44;67.08
82476;BME280;72099;43.176;76.872;2024-03-02T01:45:51;89829.38;;;-7.41;67.77
82476;BME280;72099;43.176;76.872;2024-03-02T01:48:53;89821.00;;;-7.36;68.07
82476;BME280;72099;43.176;76.872;2024-03-02T01:51:54;89811.16;;;-7.28;67.69
82476;BME280;72099;43.176;76.872;2024-03-02T01:54:55;89813.47;;;-7.26;67.62
82476;BME280;72099;43.176;76.872;2024-03-02T01:58:19;89804.16;;;-7.16;67.67
82476;BME280;72099;43.176;76.872;2024-03-02T02:01:20;89809.16;;;-7.04;67.26
82476;BME280;72099;43.176;76.872;2024-03-02T02:04:21;89812.63;;;-6.93;68.14
82476;BME280;72099;43.176;76.872;2024-03-02T02:07:27;89795.09;;;-6.85;66.76
82476;BME280;72099;43.176;76.872;2024-03-02T02:10:28;89805.53;;;-6.64;67.45
82476;BME280;72099;43.176;76.872;2024-03-02T02:13:29;89813.41;;;-6.49;66.56
82476;BME280;72099;43.176;76.872;2024-03-02T02:16:30;89807.94;;;-6.31;66.38
82476;BME280;72099;43.176;76.872;2024-03-02T02:19:30;89819.41;;;-6.11;66.41
82476;BME280;72099;43.176;76.872;2024-03-02T02:22:31;89824.44;;;-5.95;66.56
82476;BME280;72099;43.176;76.872;2024-03-02T02:25:32;89820.41;;;-5.85;66.44
82476;BME280;72099;43.176;76.872;2024-03-02T02:28:33;89829.53;;;-5.63;66.17
82476;BME280;72099;43.176;76.872;2024-03-02T02:31:41;89821.69;;;-5.51;66.09
82476;BME280;72099;43.176;76.872;2024-03-02T02:34:42;89837.16;;;-5.41;65.74
82476;BME280;72099;43.176;76.872;2024-03-02T02:37:44;89822.03;;;-5.37;65.30
82476;BME280;72099;43.176;76.872;2024-03-02T02:40:46;89838.84;;;-5.19;65.62
82476;BME280;72099;43.176;76.872;2024-03-02T02:43:46;89819.97;;;-5.03;64.98
82476;BME280;72099;43.176;76.872;2024-03-02T02:46:47;89831.09;;;-4.82;65.61
82476;BME280;72099;43.176;76.872;2024-03-02T02:49:48;89833.78;;;-4.62;65.61
82476;BME280;72099;43.176;76.872;2024-03-02T02:52:49;89829.22;;;-4.45;64.17
82476;BME280;72099;43.176;76.872;2024-03-02T02:55:50;89840.88;;;-4.22;64.44
82476;BME280;72099;43.176;76.872;2024-03-02T02:58:51;89824.25;;;-3.99;64.27
82476;BME280;72099;43.176;76.872;2024-03-02T03:01:52;89825.53;;;-3.96;63.60
82476;BME280;72099;43.176;76.872;2024-03-02T03:04:53;89833.03;;;-3.74;64.08
82476;BME280;72099;43.176;76.872;2024-03-02T03:07:54;89822.00;;;-3.60;62.77
82476;BME280;72099;43.176;76.872;2024-03-02T03:10:55;89826.63;;;-3.46;62.74
82476;BME280;72099;43.176;76.872;2024-03-02T03:13:56;89830.22;;;-3.27;62.49
82476;BME280;72099;43.176;76.872;2024-03-02T03:16:57;89823.28;;;-3.11;62.20
82476;BME280;72099;43.176;76.872;2024-03-02T03:19:58;89819.91;;;-2.91;62.45
82476;BME280;72099;43.176;76.872;2024-03-02T03:22:59;89801.38;;;-2.83;61.36
82476;BME280;72099;43.176;76.872;2024-03-02T03:26:00;89825.75;;;-2.50;60.74
82476;BME280;72099;43.176;76.872;2024-03-02T03:29:01;89818.72;;;-2.34;60.83
82476;BME280;72099;43.176;76.872;2024-03-02T03:32:03;89825.16;;;-2.27;59.94
82476;BME280;72099;43.176;76.872;2024-03-02T03:35:05;89817.66;;;-2.23;59.77
82476;BME280;72099;43.176;76.872;2024-03-02T03:38:06;89815.84;;;-2.23;59.90
82476;BME280;72099;43.176;76.872;2024-03-02T03:41:07;89824.81;;;-2.10;59.30
82476;BME280;72099;43.176;76.872;2024-03-02T03:44:08;89780.56;;;-2.17;59.55
82476;BME280;72099;43.176;76.872;2024-03-02T03:47:09;89824.91;;;-1.76;58.90
82476;BME280;72099;43.176;76.872;2024-03-02T03:50:10;89808.13;;;-1.68;58.14
82476;BME280;72099;43.176;76.872;2024-03-02T03:53:11;89807.53;;;-1.55;57.78
82476;BME280;72099;43.176;76.872;2024-03-02T03:56:12;89813.97;;;-1.58;57.06
82476;BME280;72099;43.176;76.872;2024-03-02T03:59:12;89797.94;;;-1.50;57.06
82476;BME280;72099;43.176;76.872;2024-03-02T04:02:13;89793.25;;;-1.42;56.59
82476;BME280;72099;43.176;76.872;2024-03-02T04:05:14;89793.63;;;-1.25;56.41
82476;BME280;72099;43.176;76.872;2024-03-02T04:08:15;89793.28;;;-1.13;55.89
82476;BME280;72099;43.176;76.872;2024-03-02T04:11:16;89797.00;;;-0.96;55.85
82476;BME280;72099;43.176;76.872;2024-03-02T04:14:17;89778.13;;;-0.91;55.27
82476;BME280;72099;43.176;76.872;2024-03-02T04:17:18;89786.63;;;-0.62;54.68
82476;BME280;72099;43.176;76.872;2024-03-02T04:20:19;89764.25;;;-0.47;53.60
82476;BME280;72099;43.176;76.872;2024-03-02T04:23:20;89771.84;;;-0.13;53.05
82476;BME280;72099;43.176;76.872;2024-03-02T04:26:20;89771.44;;;-0.02;52.77
82476;BME280;72099;43.176;76.872;2024-03-02T04:29:22;89782.19;;;0.29;52.60
82476;BME280;72099;43.176;76.872;2024-03-02T04:32:23;89778.47;;;0.54;52.13
82476;BME280;72099;43.176;76.872;2024-03-02T04:35:24;89796.41;;;0.83;51.47
82476;BME280;72099;43.176;76.872;2024-03-02T04:38:26;89789.59;;;1.06;50.61
82476;BME280;72099;43.176;76.872;2024-03-02T04:41:26;89778.56;;;1.14;49.58
82476;BME280;72099;43.176;76.872;2024-03-02T04:44:28;89776.28;;;1.40;50.24
82476;BME280;72099;43.176;76.872;2024-03-02T04:47:29;89760.28;;;1.66;48.81
82476;BME280;72099;43.176;76.872;2024-03-02T04:50:30;89762.50;;;1.59;48.73
82476;BME280;72099;43.176;76.872;2024-03-02T04:53:30;89763.56;;;1.71;48.57
82476;BME280;72099;43.176;76.872;2024-03-02T04:56:31;89749.44;;;1.91;48.03
82476;BME280;72099;43.176;76.872;2024-03-02T04:59:32;89747.09;;;2.03;47.55
82476;BME280;72099;43.176;76.872;2024-03-02T05:02:33;89738.09;;;2.01;47.11
82476;BME280;72099;43.176;76.872;2024-03-02T05:05:34;89731.34;;;2.14;46.87
82476;BME280;72099;43.176;76.872;2024-03-02T05:08:35;89748.59;;;2.32;46.33
82476;BME280;72099;43.176;76.872;2024-03-02T05:11:36;89733.28;;;2.44;46.24
82476;BME280;72099;43.176;76.872;2024-03-02T05:14:37;89722.16;;;2.66;45.80
82476;BME280;72099;43.176;76.872;2024-03-02T05:17:39;89715.75;;;2.72;44.95
82476;BME280;72099;43.176;76.872;2024-03-02T05:20:40;89715.59;;;3.22;44.25
82476;BME280;72099;43.176;76.872;2024-03-02T05:23:41;89732.19;;;3.66;43.74
82476;BME280;72099;43.176;76.872;2024-03-02T05:26:42;89729.19;;;3.98;43.01
82476;BME280;72099;43.176;76.872;2024-03-02T05:29:44;89724.34;;;4.14;42.55
82476;BME280;72099;43.176;76.872;2024-03-02T05:32:45;89725.72;;;4.11;41.94
82476;BME280;72099;43.176;76.872;2024-03-02T05:35:45;89712.69;;;4.11;42.35
82476;BME280;72099;43.176;76.872;2024-03-02T05:38:47;89717.91;;;4.11;41.44
82476;BME280;72099;43.176;76.872;2024-03-02T05:41:47;89731.13;;;4.32;41.75
82476;BME280;72099;43.176;76.872;2024-03-02T05:44:48;89735.38;;;4.28;40.93
82476;BME280;72099;43.176;76.872;2024-03-02T05:47:49;89732.34;;;4.52;40.63
82476;BME280;72099;43.176;76.872;2024-03-02T05:50:50;89739.56;;;4.72;40.56
82476;BME280;72099;43.176;76.872;2024-03-02T05:53:51;89728.66;;;4.79;40.47
82476;BME280;72099;43.176;76.872;2024-03-02T05:56:52;89737.69;;;5.08;40.62
82476;BME280;72099;43.176;76.872;2024-03-02T05:59:52;89742.66;;;5.65;40.63
82476;BME280;72099;43.176;76.872;2024-03-02T06:02:54;89743.69;;;5.72;39.24
82476;BME280;72099;43.176;76.872;2024-03-02T06:05:55;89746.34;;;5.63;39.60
82476;BME280;72099;43.176;76.872;2024-03-02T06:08:55;89744.09;;;5.91;39.25
82476;BME280;72099;43.176;76.872;2024-03-02T06:11:56;89735.94;;;6.02;38.98
82476;BME280;72099;43.176;76.872;2024-03-02T06:14:57;89745.22;;;6.11;37.79
82476;BME280;72099;43.176;76.872;2024-03-02T06:17:58;89752.16;;;6.37;37.82
82476;BME280;72099;43.176;76.872;2024-03-02T06:20:59;89752.72;;;6.51;37.52
82476;BME280;72099;43.176;76.872;2024-03-02T06:24:01;89753.63;;;6.76;37.02
82476;BME280;72099;43.176;76.872;2024-03-02T06:27:02;89747.84;;;6.91;36.39
82476;BME280;72099;43.176;76.872;2024-03-02T06:30:03;89748.44;;;6.88;36.62
82476;BME280;72099;43.176;76.872;2024-03-02T06:33:04;89748.06;;;6.57;36.39
82476;BME280;72099;43.176;76.872;2024-03-02T06:36:06;89741.63;;;6.54;37.15
82476;BME280;72099;43.176;76.872;2024-03-02T06:39:12;89732.16;;;6.70;36.95
82476;BME280;72099;43.176;76.872;2024-03-02T06:42:13;89724.75;;;6.72;36.08
82476;BME280;72099;43.176;76.872;2024-03-02T06:45:13;89725.06;;;6.71;37.54
82476;BME280;72099;43.176;76.872;2024-03-02T06:48:14;89717.09;;;6.67;36.77
82476;BME280;72099;43.176;76.872;2024-03-02T06:51:20;89705.06;;;6.54;36.98
82476;BME280;72099;43.176;76.872;2024-03-02T06:54:20;89706.69;;;6.38;36.57
82476;BME280;72099;43.176;76.872;2024-03-02T07:00:52;89705.41;;;5.47;37.04
82476;BME280;72099;43.176;76.872;2024-03-02T07:03:53;89699.34;;;5.17;38.26
82476;BME280;72099;43.176;76.872;2024-03-02T07:06:54;89686.75;;;5.19;38.77
82476;BME280;72099;43.176;76.872;2024-03-02T07:09:55;89685.66;;;5.37;38.96
82476;BME280;72099;43.176;76.872;2024-03-02T07:12:56;89681.59;;;5.57;38.90
82476;BME280;72099;43.176;76.872;2024-03-02T07:15:57;89674.38;;;5.54;38.64
82476;BME280;72099;43.176;76.872;2024-03-02T07:19:04;89627.28;;;5.12;38.45
82476;BME280;72099;43.176;76.872;2024-03-02T07:22:07;89668.50;;;5.19;38.31
82476;BME280;72099;43.176;76.872;2024-03-02T07:25:12;89676.69;;;4.91;38.35
82476;BME280;72099;43.176;76.872;2024-03-02T07:28:13;89668.44;;;4.81;38.36
82476;BME280;72099;43.176;76.872;2024-03-02T07:31:15;89664.19;;;4.50;38.97
82476;BME280;72099;43.176;76.872;2024-03-02T07:34:17;89659.13;;;4.54;39.47
82476;BME280;72099;43.176;76.872;2024-03-02T07:37:18;89665.88;;;4.63;38.70
82476;BME280;72099;43.176;76.872;2024-03-02T07:40:19;89661.91;;;4.57;39.28
82476;BME280;72099;43.176;76.872;2024-03-02T07:43:21;89655.28;;;4.42;39.72
82476;BME280;72099;43.176;76.872;2024-03-02T07:46:22;89672.00;;;4.24;40.06
82476;BME280;72099;43.176;76.872;2024-03-02T07:49:23;89661.28;;;4.26;40.58
82476;BME280;72099;43.176;76.872;2024-03-02T07:52:24;89655.16;;;4.39;40.51
82476;BME280;72099;43.176;76.872;2024-03-02T07:55:25;89666.63;;;4.72;40.07
82476;BME280;72099;43.176;76.872;2024-03-02T07:58:25;89668.16;;;4.82;39.98
82476;BME280;72099;43.176;76.872;2024-03-02T08:01:30;89660.44;;;5.03;40.22
82476;BME280;72099;43.176;76.872;2024-03-02T08:04:32;89663.63;;;5.17;39.84
82476;BME280;72099;43.176;76.872;2024-03-02T08:08:00;89669.00;;;5.12;40.13
82476;BME280;72099;43.176;76.872;2024-03-02T08:11:01;89672.56;;;4.90;40.68
82476;BME280;72099;43.176;76.872;2024-03-02T08:14:02;89666.03;;;4.50;41.15
82476;BME280;72099;43.176;76.872;2024-03-02T08:17:03;89676.28;;;4.20;42.37
82476;BME280;72099;43.176;76.872;2024-03-02T08:20:10;89674.34;;;3.77;42.49
82476;BME280;72099;43.176;76.872;2024-03-02T08:23:11;89677.06;;;3.55;43.05
82476;BME280;72099;43.176;76.872;2024-03-02T08:26:12;89669.69;;;3.40;43.79
82476;BME280;72099;43.176;76.872;2024-03-02T08:29:13;89669.91;;;3.21;44.04
82476;BME280;72099;43.176;76.872;2024-03-02T08:32:14;89673.88;;;3.18;44.32
82476;BME280;72099;43.176;76.872;2024-03-02T08:35:16;89674.81;;;2.91;44.35
82476;BME280;72099;43.176;76.872;2024-03-02T08:41:46;89660.25;;;2.59;45.04
82476;BME280;72099;43.176;76.872;2024-03-02T08:44:47;89662.78;;;2.51;44.91
82476;BME280;72099;43.176;76.872;2024-03-02T08:47:48;89667.16;;;2.64;45.44
82476;BME280;72099;43.176;76.872;2024-03-02T08:50:49;89663.72;;;2.77;44.77
82476;BME280;72099;43.176;76.872;2024-03-02T08:53:50;89673.44;;;2.94;44.96
82476;BME280;72099;43.176;76.872;2024-03-02T08:56:52;89659.53;;;2.99;45.16
82476;BME280;72099;43.176;76.872;2024-03-02T08:59:53;89660.53;;;3.11;44.77
82476;BME280;72099;43.176;76.872;2024-03-02T09:02:54;89672.03;;;3.59;44.60
82476;BME280;72099;43.176;76.872;2024-03-02T09:05:56;89678.09;;;3.94;44.36
82476;BME280;72099;43.176;76.872;2024-03-02T09:08:56;89665.41;;;4.27;43.69
82476;BME280;72099;43.176;76.872;2024-03-02T09:11:57;89665.41;;;4.53;43.01
82476;BME280;72099;43.176;76.872;2024-03-02T09:15:00;89664.91;;;4.85;42.75
82476;BME280;72099;43.176;76.872;2024-03-02T09:18:01;89667.75;;;5.18;42.39
82476;BME280;72099;43.176;76.872;2024-03-02T09:21:02;89668.06;;;5.17;41.89
82476;BME280;72099;43.176;76.872;2024-03-02T09:24:03;89673.00;;;5.01;41.97
82476;BME280;72099;43.176;76.872;2024-03-02T09:27:04;89669.34;;;5.02;41.69
82476;BME280;72099;43.176;76.872;2024-03-02T09:30:09;89671.34;;;4.96;41.87
82476;BME280;72099;43.176;76.872;2024-03-02T09:33:10;89678.25;;;4.75;41.48
82476;BME280;72099;43.176;76.872;2024-03-02T09:36:21;89666.19;;;4.44;41.62
82476;BME280;72099;43.176;76.872;2024-03-02T09:39:23;89679.81;;;4.33;42.03
82476;BME280;72099;43.176;76.872;2024-03-02T09:42:25;89684.84;;;4.38;42.20
82476;BME280;72099;43.176;76.872;2024-03-02T09:45:26;89689.31;;;4.46;41.72
82476;BME280;72099;43.176;76.872;2024-03-02T09:48:27;89690.53;;;4.40;41.66
82476;BME280;72099;43.176;76.872;2024-03-02T09:51:28;89698.81;;;4.51;41.34
82476;BME280;72099;43.176;76.872;2024-03-02T09:54:29;89694.97;;;4.39;41.91
82476;BME280;72099;43.176;76.872;2024-03-02T10:00:56;89697.69;;;4.08;41.60
82476;BME280;72099;43.176;76.872;2024-03-02T10:03:59;89707.00;;;4.01;42.11
82476;BME280;72099;43.176;76.872;2024-03-02T10:07:17;89679.56;;;3.69;42.58
82476;BME280;72099;43.176;76.872;2024-03-02T10:10:18;89702.88;;;3.51;42.61
82476;BME280;72099;43.176;76.872;2024-03-02T10:13:19;89693.53;;;3.42;42.82
82476;BME280;72099;43.176;76.872;2024-03-02T10:16:25;89677.31;;;3.05;43.26
82476;BME280;72099;43.176;76.872;2024-03-02T10:19:26;89697.19;;;2.79;43.27
82476;BME280;72099;43.176;76.872;2024-03-02T10:22:27;89699.78;;;2.56;43.80
82476;BME280;72099;43.176;76.872;2024-03-02T10:25:29;89706.97;;;2.59;43.86
82476;BME280;72099;43.176;76.872;2024-03-02T10:28:31;89694.00;;;2.59;43.95
82476;BME280;72099;43.176;76.872;2024-03-02T10:31:32;89702.38;;;2.56;44.31
82476;BME280;72099;43.176;76.872;2024-03-02T10:34:34;89692.88;;;2.52;44.64
82476;BME280;72099;43.176;76.872;2024-03-02T10:37:36;89623.28;;;2.09;44.64
82476;BME280;72099;43.176;76.872;2024-03-02T10:40:37;89696.25;;;2.52;44.70
82476;BME280;72099;43.176;76.872;2024-03-02T10:43:38;89699.72;;;2.48;44.86
82476;BME280;72099;43.176;76.872;2024-03-02T10:46:38;89689.09;;;2.35;44.98
82476;BME280;72099;43.176;76.872;2024-03-02T10:49:41;89698.00;;;2.43;45.11
82476;BME280;72099;43.176;76.872;2024-03-02T10:52:43;89685.50;;;2.45;45.33
82476;BME280;72099;43.176;76.872;2024-03-02T10:55:45;89650.22;;;2.22;45.75
82476;BME280;72099;43.176;76.872;2024-03-02T10:58:56;89684.56;;;2.41;45.92
82476;BME280;72099;43.176;76.872;2024-03-02T11:02:03;89657.81;;;2.18;46.20
82476;BME280;72099;43.176;76.872;2024-03-02T11:05:06;89663.59;;;2.15;46.96
82476;BME280;72099;43.176;76.872;2024-03-02T11:08:12;89634.47;;;1.96;47.14
82476;BME280;72099;43.176;76.872;2024-03-02T11:11:22;89646.59;;;1.87;47.56
82476;BME280;72099;43.176;76.872;2024-03-02T11:14:30;89654.88;;;1.61;47.83
82476;BME280;72099;43.176;76.872;2024-03-02T11:17:31;89655.09;;;1.51;48.96
82476;BME280;72099;43.176;76.872;2024-03-02T11:20:32;89672.88;;;1.44;48.92
82476;BME280;72099;43.176;76.872;2024-03-02T11:23:33;89683.13;;;1.22;49.29
82476;BME280;72099;43.176;76.872;2024-03-02T11:26:38;89676.47;;;1.02;49.57
82476;BME280;72099;43.176;76.872;2024-03-02T11:32:41;89687.16;;;0.68;50.44
82476;BME280;72099;43.176;76.872;2024-03-02T11:35:45;89676.53;;;0.37;50.99
82476;BME280;72099;43.176;76.872;2024-03-02T11:38:49;89675.84;;;0.12;51.84
82476;BME280;72099;43.176;76.872;2024-03-02T11:41:57;89677.50;;;-0.11;52.42
82476;BME280;72099;43.176;76.872;2024-03-02T11:44:59;89690.38;;;-0.30;53.11
82476;BME280;72099;43.176;76.872;2024-03-02T11:51:28;89678.91;;;-0.61;54.00
82476;BME280;72099;43.176;76.872;2024-03-02T11:54:31;89697.97;;;-0.57;54.47
82476;BME280;72099;43.176;76.872;2024-03-02T11:57:33;89688.88;;;-0.73;54.21
82476;BME280;72099;43.176;76.872;2024-03-02T12:00:35;89710.06;;;-0.76;55.08
82476;BME280;72099;43.176;76.872;2024-03-02T12:03:36;89730.09;;;-0.92;55.39
82476;BME280;72099;43.176;76.872;2024-03-02T12:06:37;89739.81;;;-1.08;56.11
82476;BME280;72099;43.176;76.872;2024-03-02T12:09:39;89741.94;;;-1.15;55.87
82476;BME280;72099;43.176;76.872;2024-03-02T12:12:39;89755.66;;;-1.20;56.10
82476;BME280;72099;43.176;76.872;2024-03-02T12:15:40;89766.84;;;-1.29;56.30
82476;BME280;72099;43.176;76.872;2024-03-02T12:18:42;89767.91;;;-1.35;57.03
82476;BME280;72099;43.176;76.872;2024-03-02T12:21:44;89764.41;;;-1.50;57.42
82476;BME280;72099;43.176;76.872;2024-03-02T12:24:45;89779.63;;;-1.48;57.42
82476;BME280;72099;43.176;76.872;2024-03-02T12:27:51;89783.03;;;-1.58;57.54
82476;BME280;72099;43.176;76.872;2024-03-02T12:30:53;89799.59;;;-1.64;57.86
82476;BME280;72099;43.176;76.872;2024-03-02T12:33:54;89801.16;;;-1.68;57.95
82476;BME280;72099;43.176;76.872;2024-03-02T12:36:55;89808.41;;;-1.75;58.57
82476;BME280;72099;43.176;76.872;2024-03-02T12:39:56;89808.50;;;-1.90;59.13
82476;BME280;72099;43.176;76.872;2024-03-02T12:42:57;89803.44;;;-2.11;58.72
82476;BME280;72099;43.176;76.872;2024-03-02T12:45:58;89818.91;;;-2.11;59.61
82476;BME280;72099;43.176;76.872;2024-03-02T12:49:07;89825.34;;;-2.13;59.58
82476;BME280;72099;43.176;76.872;2024-03-02T12:52:12;89823.81;;;-2.14;60.24
82476;BME280;72099;43.176;76.872;2024-03-02T12:55:16;89825.13;;;-2.17;60.26
82476;BME280;72099;43.176;76.872;2024-03-02T12:58:46;89835.19;;;-2.20;60.78
82476;BME280;72099;43.176;76.872;2024-03-02T13:01:54;89831.31;;;-2.23;60.61
82476;BME280;72099;43.176;76.872;2024-03-02T13:04:58;89832.84;;;-2.22;61.04
82476;BME280;72099;43.176;76.872;2024-03-02T13:07:59;89846.75;;;-2.18;60.74
82476;BME280;72099;43.176;76.872;2024-03-02T13:11:01;89843.41;;;-2.18;60.85
82476;BME280;72099;43.176;76.872;2024-03-02T13:14:01;89850.63;;;-2.15;61.36
82476;BME280;72099;43.176;76.872;2024-03-02T13:17:03;89848.06;;;-2.25;61.04
82476;BME280;72099;43.176;76.872;2024-03-02T13:20:07;89854.78;;;-2.29;61.88
82476;BME280;72099;43.176;76.872;2024-03-02T13:23:10;89852.22;;;-2.34;62.37
82476;BME280;72099;43.176;76.872;2024-03-02T13:26:11;89857.63;;;-2.36;62.00
82476;BME280;72099;43.176;76.872;2024-03-02T13:29:13;89858.16;;;-2.34;62.13
82476;BME280;72099;43.176;76.872;2024-03-02T13:32:14;89860.97;;;-2.30;62.52
82476;BME280;72099;43.176;76.872;2024-03-02T13:35:16;89869.44;;;-2.25;61.99
82476;BME280;72099;43.176;76.872;2024-03-02T13:38:20;89852.97;;;-2.29;61.91
82476;BME280;72099;43.176;76.872;2024-03-02T13:41:21;89871.50;;;-2.17;61.97
82476;BME280;72099;43.176;76.872;2024-03-02T13:44:22;89868.41;;;-2.19;62.57
82476;BME280;72099;43.176;76.872;2024-03-02T13:47:52;89866.31;;;-2.12;62.58
82476;BME280;72099;43.176;76.872;2024-03-02T13:50:53;89871.72;;;-2.13;62.07
82476;BME280;72099;43.176;76.872;2024-03-02T13:53:54;89865.56;;;-2.22;62.83
82476;BME280;72099;43.176;76.872;2024-03-02T13:56:54;89857.63;;;-2.31;63.22
82476;BME280;72099;43.176;76.872;2024-03-02T13:59:55;89828.28;;;-2.40;62.97
82476;BME280;72099;43.176;76.872;2024-03-02T14:02:56;89837.22;;;-2.17;63.65
82476;BME280;72099;43.176;76.872;2024-03-02T14:05:57;89860.69;;;-1.64;63.44
82476;BME280;72099;43.176;76.872;2024-03-02T14:08:58;89858.97;;;-1.35;63.22
82476;BME280;72099;43.176;76.872;2024-03-02T14:12:00;89866.34;;;-1.18;63.76
82476;BME280;72099;43.176;76.872;2024-03-02T14:15:01;89808.66;;;-1.71;64.22
82476;BME280;72099;43.176;76.872;2024-03-02T14:18:05;89868.91;;;-1.57;63.95
82476;BME280;72099;43.176;76.872;2024-03-02T14:21:07;89868.47;;;-1.74;64.60
82476;BME280;72099;43.176;76.872;2024-03-02T14:24:08;89849.97;;;-1.82;64.79
82476;BME280;72099;43.176;76.872;2024-03-02T14:27:09;89861.34;;;-1.93;64.74
82476;BME280;72099;43.176;76.872;2024-03-02T14:30:11;89858.59;;;-2.22;64.81
82476;BME280;72099;43.176;76.872;2024-03-02T14:33:12;89852.38;;;-2.05;66.50
82476;BME280;72099;43.176;76.872;2024-03-02T14:36:14;89869.75;;;-1.67;66.06
82476;BME280;72099;43.176;76.872;2024-03-02T14:39:15;89857.44;;;-1.85;65.17
82476;BME280;72099;43.176;76.872;2024-03-02T14:42:16;89861.72;;;-1.65;66.07
82476;BME280;72099;43.176;76.872;2024-03-02T14:45:16;89874.78;;;-1.46;66.30
82476;BME280;72099;43.176;76.872;2024-03-02T14:48:17;89866.63;;;-1.64;65.62
82476;BME280;72099;43.176;76.872;2024-03-02T14:51:18;89826.09;;;-2.02;65.60
82476;BME280;72099;43.176;76.872;2024-03-02T14:54:20;89870.63;;;-1.97;65.40
82476;BME280;72099;43.176;76.872;2024-03-02T14:57:21;89865.06;;;-2.19;66.02
82476;BME280;72099;43.176;76.872;2024-03-02T15:00:22;89862.69;;;-2.11;66.69
82476;BME280;72099;43.176;76.872;2024-03-02T15:03:23;89867.13;;;-1.62;66.39
82476;BME280;72099;43.176;76.872;2024-03-02T15:06:23;89869.78;;;-1.28;65.98
82476;BME280;72099;43.176;76.872;2024-03-02T15:09:24;89874.31;;;-1.54;65.65
82476;BME280;72099;43.176;76.872;2024-03-02T15:12:25;89880.38;;;-1.34;66.54
82476;BME280;72099;43.176;76.872;2024-03-02T15:15:26;89878.41;;;-1.08;66.15
82476;BME280;72099;43.176;76.872;2024-03-02T15:18:27;89876.75;;;-0.94;66.53
82476;BME280;72099;43.176;76.872;2024-03-02T15:21:28;89883.50;;;-0.98;66.01
82476;BME280;72099;43.176;76.872;2024-03-02T15:24:29;89893.88;;;-1.03;66.09
82476;BME280;72099;43.176;76.872;2024-03-02T15:27:30;89899.47;;;-0.91;65.70
82476;BME280;72099;43.176;76.872;2024-03-02T15:30:31;89889.50;;;-0.74;66.00
82476;BME280;72099;43.176;76.872;2024-03-02T15:33:32;89902.34;;;-0.64;66.75
82476;BME280;72099;43.176;76.872;2024-03-02T15:36:34;89900.75;;;-0.60;65.56
82476;BME280;72099;43.176;76.872;2024-03-02T15:39:35;89907.44;;;-0.58;65.68
82476;BME280;72099;43.176;76.872;2024-03-02T15:42:36;89919.41;;;-0.10;65.38
82476;BME280;72099;43.176;76.872;2024-03-02T15:45:37;89902.91;;;-0.43;65.20
82476;BME280;72099;43.176;76.872;2024-03-02T15:48:38;89909.91;;;-0.43;65.31
82476;BME280;72099;43.176;76.872;2024-03-02T15:51:39;89913.31;;;-0.48;64.85
82476;BME280;72099;43.176;76.872;2024-03-02T15:54:50;89909.97;;;-0.48;66.09
82476;BME280;72099;43.176;76.872;2024-03-02T15:58:18;89926.38;;;-0.39;66.00
82476;BME280;72099;43.176;76.872;2024-03-02T16:01:19;89903.94;;;-0.39;66.10
82476;BME280;72099;43.176;76.872;2024-03-02T16:04:20;89911.06;;;-0.25;64.93
82476;BME280;72099;43.176;76.872;2024-03-02T16:07:21;89894.59;;;-0.35;65.27
82476;BME280;72099;43.176;76.872;2024-03-02T16:10:22;89903.78;;;-0.23;65.23
82476;BME280;72099;43.176;76.872;2024-03-02T16:13:24;89904.56;;;-0.23;64.79
82476;BME280;72099;43.176;76.872;2024-03-02T16:16:25;89892.56;;;-0.38;64.64
82476;BME280;72099;43.176;76.872;2024-03-02T16:19:26;89904.50;;;-0.76;64.79
82476;BME280;72099;43.176;76.872;2024-03-02T16:22:27;89876.19;;;-1.25;64.59